Latest Weather Observations for Wudinna Airport

IDS60801

Issued at 6:05 pm CDT Thursday 23 October 2014 (issued every 30 minutes, with the page automatically refreshed every 10 minutes)

About weather observations | Map of weather stations | Latest weather observations for SA | Other Formats
Station Details ID: 018083 Name: WUDINNA AERO Lat: -33.04 Lon: 135.45 Height: 86.4 m
Data from the previous 72 hours. | See also: Recent months at Wudinna Airport
Date/Time
CDT
Temp
°C
App
Temp
°C
Dew
Point
Rel
Hum
%
Delta-T
°C
Wind Press
QNH
hPa
Press
MSL
hPa
Rain
since 9 am
mm
Dir
 
Spd
km/h
Gust
km/h
Spd
kts
Gust
kts
23/06:00pm 29.7 23.3 7.0 24 12.2 SW 30 39 16 21 1013.7 1013.5 0.0
23/05:30pm 31.0 24.7 1.4 15 14.6 WNW 24 32 13 17 1013.5 - 0.0
23/05:00pm 31.7 28.2 3.7 17 14.4 WNW 11 22 6 12 1013.6 - 0.0
23/04:30pm 31.2 25.3 4.1 18 14.0 W 24 32 13 17 1013.5 - 0.0
23/04:00pm 31.6 28.7 4.4 18 14.2 N 9 24 5 13 1013.5 - 0.0
23/03:30pm 30.9 27.2 4.6 19 13.7 W 13 32 7 17 1013.9 - 0.0
23/03:00pm 30.4 26.3 4.2 19 13.5 WNW 15 24 8 13 1014.2 1014.0 0.0
23/02:30pm 29.3 26.1 6.7 24 12.1 S 13 22 7 12 1014.6 - 0.0
23/02:00pm 28.1 26.4 7.4 27 11.1 W 6 15 3 8 1015.1 - 0.0
23/01:30pm 27.5 24.9 7.9 29 10.6 SSW 11 17 6 9 1015.2 - 0.0
23/01:00pm 26.4 24.2 7.9 31 9.9 S 9 17 5 9 1015.7 - 0.0
23/12:30pm 25.5 23.8 8.5 34 9.2 SE 7 13 4 7 1016.4 - 0.0
23/12:00pm 23.4 21.5 9.0 40 7.8 SSE 9 19 5 10 1017.0 1016.9 0.0
23/11:30am 22.7 21.5 10.2 45 6.9 E 7 13 4 7 1017.5 - 0.0
23/11:00am 20.9 18.5 10.1 50 5.9 SE 13 17 7 9 1017.5 - 0.0
23/10:30am 19.9 17.3 10.6 55 5.1 ESE 15 22 8 12 1017.5 - 0.0
23/10:00am 18.5 15.5 10.6 60 4.3 ESE 17 22 9 12 1017.6 - 0.0
23/09:30am 18.0 15.6 11.3 65 3.7 ESE 15 20 8 11 1018.2 - 0.0
23/09:00am 16.4 13.8 10.7 69 3.0 ESE 15 22 8 12 1018.3 1018.2 0.0
23/08:30am 15.7 12.8 11.1 74 2.5 E 17 24 9 13 1018.3 - 0.0
23/08:00am 15.2 12.8 11.4 78 2.0 SE 15 20 8 11 1018.6 - 0.0
23/07:30am 14.7 12.3 11.3 80 1.8 ESE 15 20 8 11 1018.7 - 0.0
23/07:00am 14.7 12.6 11.3 80 1.8 SE 13 17 7 9 1018.6 - 0.0
23/06:30am 14.6 11.8 11.2 80 1.8 ESE 17 22 9 12 1018.4 - 0.0
23/06:00am 15.0 13.0 11.6 80 1.8 ESE 13 20 7 11 1018.3 1018.2 0.0
23/05:30am 15.1 13.6 11.9 81 1.7 SE 11 17 6 9 1018.2 - 0.0
23/05:00am 14.9 12.6 11.9 82 1.6 SE 15 20 8 11 1018.2 - 0.0
23/04:30am 14.7 12.0 11.7 82 1.6 ESE 17 24 9 13 1018.4 - 0.0
23/04:00am 14.5 11.7 11.5 82 1.6 SE 17 24 9 13 1018.4 - 0.0
23/03:30am 14.5 12.2 11.6 83 1.6 SE 15 20 8 11 1018.7 - 0.0
23/03:00am 14.4 12.5 11.7 84 1.5 SE 13 17 7 9 1019.1 1019.0 0.0
23/02:30am 14.1 11.8 11.6 85 1.3 SE 15 20 8 11 1019.5 - 0.0
23/02:00am 14.0 11.7 11.7 86 1.2 SE 15 24 8 13 1019.6 - 0.0
23/01:30am 13.8 11.4 11.5 86 1.2 SE 15 22 8 12 1019.8 - 0.0
23/01:00am 13.0 11.2 10.9 87 1.1 SE 11 15 6 8 1020.4 - 0.0
23/12:30am 13.1 11.2 10.5 84 1.4 SE 11 15 6 8 1020.4 - 0.0
23/12:00am 13.5 11.7 10.7 83 1.5 SSE 11 15 6 8 1020.5 1020.3 0.0
 
Date/Time
CDT
Temp
°C
App
Temp
°C
Dew
Point
Rel
Hum
%
Delta-T
°C
Wind Press
QNH
hPa
Press
MSL
hPa
Rain
since 9 am
mm
Dir
 
Spd
km/h
Gust
km/h
Spd
kts
Gust
kts
22/11:30pm 13.1 11.9 10.3 83 1.5 S 7 9 4 5 1020.7 - 0.0
22/11:00pm 13.8 12.4 10.8 82 1.6 S 9 13 5 7 1020.8 - 0.0
22/10:30pm 14.8 13.2 11.4 80 1.8 S 11 15 6 8 1020.9 - 0.0
22/10:00pm 15.4 13.8 11.6 78 2.1 S 11 15 6 8 1020.8 - 0.0
22/09:30pm 16.0 13.7 11.6 75 2.4 SSW 15 20 8 11 1020.5 - 0.0
22/09:00pm 16.8 14.5 11.7 72 2.8 SSW 15 19 8 10 1020.4 1020.2 0.0
22/08:30pm 17.7 15.4 11.7 68 3.3 SSW 15 20 8 11 1019.9 - 0.0
22/08:00pm 18.8 15.6 11.9 64 3.8 SSW 20 24 11 13 1019.9 - 0.0
22/07:30pm 20.6 16.6 11.8 57 4.9 SSW 24 32 13 17 1019.4 - 0.0
22/07:00pm 22.7 19.1 11.7 49 6.2 SSW 22 30 12 16 1018.8 - 0.0
22/06:30pm 24.4 19.8 11.0 43 7.5 SW 26 32 14 17 1018.7 - 0.0
22/06:00pm 25.7 20.9 10.3 38 8.6 SW 26 33 14 18 1018.5 1018.4 0.0
22/05:30pm 26.4 21.3 9.3 34 9.4 SSW 26 37 14 20 1018.3 - 0.0
22/05:00pm 26.7 21.4 8.6 32 9.9 SSW 26 35 14 19 1018.4 - 0.0
22/04:30pm 27.5 22.3 8.9 31 10.2 SSW 26 35 14 19 1018.4 - 0.0
22/04:00pm 28.3 23.6 9.1 30 10.6 SSW 24 37 13 20 1018.5 - 0.0
22/03:30pm 28.0 23.6 8.8 30 10.6 SSW 22 37 12 20 1018.6 - 0.0
22/03:00pm 28.2 23.4 9.0 30 10.6 S 24 35 13 19 1018.7 1018.6 0.0
22/02:30pm 28.2 23.2 8.0 28 11.0 S 24 35 13 19 1019.0 - 0.0
22/02:00pm 27.6 23.5 8.5 30 10.4 S 20 33 11 18 1019.1 - 0.0
22/01:30pm 28.3 23.9 9.1 30 10.6 S 22 30 12 16 1019.2 - 0.0
22/01:00pm 27.0 22.7 9.4 33 9.7 SSE 22 35 12 19 1019.5 - 0.0
22/12:30pm 26.2 22.3 9.5 35 9.2 SSW 20 32 11 17 1020.0 - 0.0
22/12:00pm 26.0 22.7 11.0 39 8.5 S 19 30 10 16 1020.4 1020.2 0.0
22/11:30am 24.9 21.0 10.7 40 7.9 SSW 22 30 12 16 1020.7 - 0.0
22/11:00am 23.4 19.9 10.8 45 7.0 SSW 20 28 11 15 1020.9 - 0.0
22/10:30am 21.9 18.9 11.9 53 5.6 S 19 30 10 16 1020.9 - 0.0
22/10:00am 20.4 17.9 12.4 60 4.5 SSW 17 22 9 12 1021.0 - 0.0
22/09:30am 18.8 17.2 12.8 68 3.4 S 13 19 7 10 1020.8 - 0.0
22/09:00am 17.0 14.7 13.1 78 2.2 SSW 17 20 9 11 1020.7 1020.5 0.0
22/08:30am 15.7 14.2 13.2 85 1.4 SSW 13 19 7 10 1020.5 - 0.0
22/08:00am 15.0 14.4 13.4 90 0.9 SW 9 13 5 7 1020.3 - 0.0
22/07:30am 13.8 12.6 12.7 93 0.6 WSW 11 13 6 7 1020.0 - 0.0
22/07:00am 12.5 11.2 11.4 93 0.6 WSW 9 11 5 6 1019.5 - 0.0
22/06:30am 12.8 11.2 11.4 91 0.7 WSW 11 13 6 7 1019.1 - 0.0
22/06:00am 12.7 11.6 10.8 88 1.0 SW 7 11 4 6 1018.8 1018.7 0.0
22/05:30am 13.3 11.3 11.4 88 1.0 SW 13 17 7 9 1018.6 - 0.0
22/05:00am 13.3 11.9 10.8 85 1.3 WSW 9 11 5 6 1018.5 - 0.0
22/04:30am 13.5 11.5 10.3 81 1.7 W 11 15 6 8 1018.5 - 0.0
22/04:00am 12.0 10.2 9.4 84 1.3 WSW 9 17 5 9 1018.3 - 0.0
22/03:30am 13.7 12.1 10.3 80 1.8 WSW 9 13 5 7 1018.3 - 0.0
22/03:00am 12.0 9.6 8.8 81 1.6 W 11 15 6 8 1018.4 1018.3 0.0
22/02:30am 13.3 10.9 10.1 81 1.7 WNW 13 15 7 8 1018.6 - 0.0
22/02:00am 13.4 11.4 10.0 80 1.8 W 11 15 6 8 1018.8 - 0.0
22/01:30am 14.1 12.6 10.5 79 1.9 W 9 13 5 7 1018.8 - 0.0
22/01:00am 15.1 13.4 11.1 77 2.1 W 11 13 6 7 1018.8 - 0.0
22/12:30am 15.6 14.0 11.6 77 2.2 W 11 17 6 9 1018.8 - 0.0
22/12:00am 16.7 15.0 12.3 75 2.4 WSW 13 19 7 10 1018.8 1018.7 0.0
 
Date/Time
CDT
Temp
°C
App
Temp
°C
Dew
Point
Rel
Hum
%
Delta-T
°C
Wind Press
QNH
hPa
Press
MSL
hPa
Rain
since 9 am
mm
Dir
 
Spd
km/h
Gust
km/h
Spd
kts
Gust
kts
21/11:30pm 17.4 14.3 12.1 71 2.9 WSW 20 28 11 15 1018.8 - 0.0
21/11:00pm 18.6 14.4 7.4 48 5.7 W 19 24 10 13 1018.5 - 0.0
21/10:30pm 20.4 15.3 3.2 32 8.2 WSW 19 20 10 11 1018.3 - 0.0
21/10:00pm 20.9 18.3 3.2 31 8.4 NW 6 9 3 5 1017.6 - 0.0
21/09:30pm 19.9 16.9 1.8 30 8.3 W 7 9 4 5 1017.2 - 0.0
21/09:00pm 23.4 18.5 2.3 25 10.0 WSW 17 20 9 11 1016.8 1016.7 0.0
21/08:30pm 22.7 17.5 2.2 26 9.7 W 19 22 10 12 1016.5 - 0.0
21/08:00pm 25.6 20.3 1.7 21 11.4 WSW 19 20 10 11 1016.0 - 0.0
21/07:30pm 28.0 23.4 1.5 18 12.9 SSW 15 19 8 10 1015.7 - 0.0
21/07:00pm 30.8 24.7 0.2 14 14.8 SW 22 33 12 18 1015.1 - 0.0
21/06:30pm 35.4 29.5 -0.8 10 17.8 N 20 32 11 17 1014.4 - 0.0
21/06:04pm 35.6 28.0 -2.1 9 18.1 NNW 28 46 15 25 1014.2 - 0.0
21/06:00pm 36.3 29.9 -1.6 9 18.5 NNW 22 46 12 25 1014.2 1014.0 0.0
21/05:30pm 35.0 29.1 -1.1 10 17.6 N 20 35 11 19 1014.4 - 0.0
21/05:18pm 34.6 25.8 -1.4 10 17.4 WNW 35 106 19 57 1014.6 - 0.0
21/05:14pm 34.1 18.9 -0.5 11 16.9 WNW 69 106 37 57 1014.3 - 0.0
21/05:12pm 34.1 26.3 -0.5 11 16.9 WNW 30 59 16 32 1014.5 - 0.0
21/05:00pm 34.7 30.8 -1.4 10 17.5 N 9 30 5 16 1014.4 - 0.0
21/04:30pm 34.6 28.2 -1.4 10 17.4 WNW 22 30 12 16 1014.3 - 0.0
21/04:00pm 35.6 29.1 -2.1 9 18.1 NW 22 32 12 17 1014.7 - 0.0
21/03:30pm 35.8 29.9 -2.0 9 18.2 NNW 19 35 10 19 1014.5 - 0.0
21/03:00pm 35.9 29.5 -1.9 9 18.3 NNW 22 33 12 18 1014.9 1014.7 0.0
21/02:30pm 35.6 27.2 -2.1 9 18.1 NW 32 43 17 23 1015.6 - 0.0
21/02:00pm 36.1 28.2 -1.7 9 18.4 NNW 30 44 16 24 1015.9 - 0.0
21/01:30pm 35.4 28.5 -2.3 9 18.0 NW 24 37 13 20 1016.2 - 0.0
21/01:00pm 35.5 27.9 -2.2 9 18.1 NNW 28 41 15 22 1016.2 - 0.0
21/12:30pm 35.7 27.4 -2.0 9 18.2 NNW 32 48 17 26 1016.5 - 0.0
21/12:00pm 35.3 27.1 -0.9 10 17.7 NNW 32 43 17 23 1017.1 1017.0 0.0
21/11:48am 35.0 26.6 -1.1 10 17.6 NNW 33 52 18 28 1017.3 - 0.0
21/11:30am 35.2 26.8 -1.0 10 17.7 N 33 46 18 25 1017.4 - 0.0
21/11:00am 34.5 27.4 -1.5 10 17.4 N 26 39 14 21 1017.4 - 0.0
21/10:30am 33.4 26.2 -2.3 10 16.9 N 26 37 14 20 1017.5 - 0.0
21/10:00am 32.7 25.6 -1.6 11 16.3 N 26 41 14 22 1017.4 - 0.0
21/09:30am 30.4 24.5 -1.1 13 14.9 N 20 28 11 15 1017.4 - 0.0
21/09:00am 29.0 22.2 -2.2 13 14.3 NNE 24 32 13 17 1017.2 1017.1 0.0
21/08:30am 27.6 21.5 -2.3 14 13.5 NNE 20 28 11 15 1017.0 - 0.0
21/08:00am 26.1 20.9 -2.5 15 12.7 NE 15 19 8 10 1017.0 - 0.0
21/07:30am 23.9 19.0 -3.4 16 11.7 NE 13 17 7 9 1016.7 - 0.0
21/07:00am 23.0 17.6 -4.1 16 11.4 NE 15 19 8 10 1016.1 - 0.0
21/06:30am 24.2 18.0 -5.0 14 12.2 NNE 19 24 10 13 1015.7 - 0.0
21/06:00am 24.7 18.3 -4.6 14 12.4 NNE 20 30 11 16 1015.4 1015.3 0.0
21/05:30am 25.1 18.0 -4.2 14 12.5 NNE 24 32 13 17 1015.1 - 0.0
21/05:00am 25.5 18.3 -4.9 13 12.9 NNE 24 32 13 17 1015.0 - 0.0
21/04:30am 25.9 18.8 -4.6 13 13.0 NNE 24 32 13 17 1014.9 - 0.0
21/04:00am 26.6 19.0 -5.1 12 13.5 NNE 26 35 14 19 1014.8 - 0.0
21/03:30am 26.8 19.6 -4.9 12 13.6 NNE 24 33 13 18 1014.9 - 0.0
21/03:00am 27.1 19.6 -4.7 12 13.7 NNE 26 35 14 19 1014.9 1014.7 0.0
21/02:30am 25.5 18.2 -6.0 12 13.1 NNE 24 30 13 16 1015.1 - 0.0
21/02:00am 25.1 17.8 -6.3 12 12.9 NNE 24 32 13 17 1015.2 - 0.0
21/01:30am 23.9 17.4 -6.2 13 12.3 NE 20 28 11 15 1015.6 - 0.0
21/01:00am 23.2 16.7 -7.7 12 12.1 NE 19 28 10 15 1015.9 - 0.0
21/12:30am 23.3 16.7 -8.8 11 12.4 NE 19 26 10 14 1016.1 - 0.0
21/12:00am 22.0 16.6 -8.7 12 11.7 NE 13 19 7 10 1016.5 1016.4 0.0
 
Date/Time
CDT
Temp
°C
App
Temp
°C
Dew
Point
Rel
Hum
%
Delta-T
°C
Wind Press
QNH
hPa
Press
MSL
hPa
Rain
since 9 am
mm
Dir
 
Spd
km/h
Gust
km/h
Spd
kts
Gust
kts
20/11:30pm 24.0 18.7 -7.1 12 12.5 ENE 13 19 7 10 1016.8 - 0.0
20/11:00pm 22.5 18.3 -8.3 12 11.9 ENE 7 9 4 5 1016.9 - 0.0
20/10:30pm 23.2 18.6 -7.7 12 12.1 ENE 9 13 5 7 1017.1 - 0.0
20/10:00pm 22.0 17.8 -7.6 13 11.5 NE 7 9 4 5 1017.1 - 0.0
20/09:30pm 23.0 18.4 -7.9 12 12.1 ENE 9 13 5 7 1017.2 - 0.0
20/09:00pm 23.1 17.8 -7.8 12 12.1 NNE 13 15 7 8 1016.7 1016.6 0.0
20/08:30pm 23.8 18.8 -8.4 11 12.6 NNE 11 13 6 7 1016.7 - 0.0
20/08:00pm 25.7 21.2 -6.9 11 13.3 NNE 9 11 5 6 1016.4 - 0.0
20/07:30pm 28.7 23.8 -7.3 9 15.0 NE 11 13 6 7 1016.1 - 0.0
20/07:00pm 32.9 28.7 -7.4 7 17.4 NE 7 9 4 5 1015.8 - 0.0
20/06:30pm 34.7 29.7 -8.1 6 18.6 N 11 17 6 9 1015.6 - 0.0

Other Formats:

Comma delimited format used in spreadsheet applications
http://www.bom.gov.au/fwo/IDS60801/IDS60801.95654.axf

JavaScript Object Notation format (JSON) in row-major order
http://www.bom.gov.au/fwo/IDS60801/IDS60801.95654.json